Time;durP1;ratioP1;P1;durP2;ratioP2;P2;SDS_P1;SDS_P2;PMS_P1;PMS_P2;Temp;Humidity;BMP_temperature;BMP_pressure;BME280_temperature;BME280_humidity;BME280_pressure;Samples;Min_cycle;Max_cycle;Signal;HPM_P1;HPM_P2
2021/03/12 00:00:12;;;;;;;0.10;0.10;;;15.10;69.80;;;;;;4178744;28;20132;-42
2021/03/12 00:02:33;;;;;;;0.00;0.00;;;15.10;69.90;;;;;;4186026;28;20052;-45
2021/03/12 00:04:54;;;;;;;0.00;0.00;;;15.10;69.90;;;;;;4179734;28;20457;-42
2021/03/12 00:07:19;;;;;;;0.00;0.00;;;15.00;69.80;;;;;;4181813;28;20056;-43
2021/03/12 00:09:39;;;;;;;0.00;0.00;;;15.00;69.80;;;;;;4181857;28;20711;-43
2021/03/12 00:12:00;;;;;;;0.00;0.00;;;15.00;69.90;;;;;;4184247;28;20136;-43
2021/03/12 00:14:21;;;;;;;0.00;0.00;;;15.00;69.90;;;;;;4195483;28;20401;-42
2021/03/12 00:16:42;;;;;;;3.05;0.25;;;15.00;70.00;;;;;;4198004;28;20057;-42
2021/03/12 00:19:04;;;;;;;0.00;0.00;;;15.00;70.10;;;;;;4198242;28;20052;-43
2021/03/12 00:21:25;;;;;;;;;;;15.00;70.00;;;;;;4197542;28;20477;-43
2021/03/12 00:23:47;;;;;;;0.00;0.00;;;14.90;70.00;;;;;;4197591;28;20457;-43
2021/03/12 00:26:09;;;;;;;0.00;0.00;;;14.90;70.00;;;;;;4197988;28;20579;-43
2021/03/12 00:28:30;;;;;;;0.00;0.00;;;14.90;70.00;;;;;;4197879;28;20067;-42
2021/03/12 00:30:52;;;;;;;0.00;0.00;;;14.90;69.90;;;;;;4196927;28;20076;-49
2021/03/12 00:33:15;;;;;;;0.08;0.08;;;14.90;70.00;;;;;;4196236;28;20123;-43
2021/03/12 00:35:37;;;;;;;0.00;0.00;;;14.80;69.90;;;;;;4198273;28;20060;-47
2021/03/12 00:37:58;;;;;;;0.00;0.00;;;14.80;69.90;;;;;;4197864;28;20502;-42
2021/03/12 00:40:22;;;;;;;0.00;0.00;;;14.80;69.80;;;;;;4196927;28;20049;-44
2021/03/12 00:42:44;;;;;;;0.00;0.00;;;14.80;69.90;;;;;;4197421;28;20052;-47
2021/03/12 00:45:08;;;;;;;0.05;0.05;;;14.80;69.90;;;;;;4197801;28;20075;-45
2021/03/12 00:47:29;;;;;;;0.00;0.00;;;14.80;69.90;;;;;;4196853;28;20498;-44
2021/03/12 00:49:50;;;;;;;0.00;0.00;;;14.80;69.90;;;;;;4196792;28;20059;-47
2021/03/12 00:52:11;;;;;;;;;;;14.80;69.80;;;;;;4196812;28;20469;-46
2021/03/12 00:54:32;;;;;;;0.00;0.00;;;14.70;69.70;;;;;;4180201;28;20350;-44
2021/03/12 00:57:06;;;;;;;0.55;0.55;;;14.70;69.70;;;;;;4179998;28;20057;-49
2021/03/12 00:59:27;;;;;;;0.00;0.00;;;14.70;69.80;;;;;;4181153;28;20092;-45
2021/03/12 01:01:50;;;;;;;0.98;0.98;;;14.70;69.80;;;;;;4195685;28;20135;-46
2021/03/12 01:04:11;;;;;;;;;;;14.60;69.90;;;;;;4196755;28;20052;-43
2021/03/12 01:06:32;;;;;;;0.82;0.80;;;14.60;70.00;;;;;;4196613;28;19966;-44
2021/03/12 01:08:57;;;;;;;0.00;0.00;;;14.60;69.90;;;;;;4196540;28;20446;-43
2021/03/12 01:11:22;;;;;;;0.00;0.00;;;14.60;70.00;;;;;;4196365;28;20044;-44
2021/03/12 01:13:45;;;;;;;0.00;0.00;;;14.60;69.90;;;;;;4193660;28;20479;-46
2021/03/12 01:16:06;;;;;;;0.00;0.00;;;14.60;70.00;;;;;;4179488;28;20461;-46
2021/03/12 01:18:28;;;;;;;0.00;0.00;;;14.50;69.90;;;;;;4180755;28;20510;-41
2021/03/12 01:20:52;;;;;;;0.38;0.38;;;14.60;70.00;;;;;;4187286;28;20052;-44
2021/03/12 01:23:16;;;;;;;0.00;0.00;;;14.50;69.90;;;;;;4195984;28;20053;-43
2021/03/12 01:25:38;;;;;;;;;;;14.50;69.80;;;;;;4196710;28;20400;-48
2021/03/12 01:27:59;;;;;;;0.25;0.25;;;14.50;70.10;;;;;;4195882;28;19978;-46
2021/03/12 01:30:24;;;;;;;0.00;0.00;;;14.50;70.00;;;;;;4197042;28;20476;-46
2021/03/12 01:32:45;;;;;;;0.00;0.00;;;14.50;69.90;;;;;;4195977;28;20067;-45
2021/03/12 01:35:10;;;;;;;0.00;0.00;;;14.50;70.00;;;;;;4196032;28;20568;-45
2021/03/12 01:37:31;;;;;;;0.00;0.00;;;14.50;70.10;;;;;;4195974;28;20101;-45
2021/03/12 01:39:56;;;;;;;0.10;0.10;;;14.50;70.00;;;;;;4195733;28;20099;-43
2021/03/12 01:42:22;;;;;;;0.00;0.00;;;14.50;70.10;;;;;;4195628;28;20055;-48
2021/03/12 01:44:43;;;;;;;;;;;14.40;69.90;;;;;;4196347;28;20406;-48
2021/03/12 01:47:05;;;;;;;0.00;0.00;;;14.40;70.00;;;;;;4195801;28;19920;-48
2021/03/12 01:49:27;;;;;;;0.00;0.00;;;14.40;69.90;;;;;;4195845;28;20851;-46
2021/03/12 01:51:48;;;;;;;0.00;0.00;;;14.40;70.00;;;;;;4179217;28;20052;-49
2021/03/12 01:54:10;;;;;;;0.00;0.00;;;14.40;70.00;;;;;;4180255;28;20491;-49
2021/03/12 01:56:31;;;;;;;0.73;0.73;;;14.40;69.90;;;;;;4180127;28;20135;-47
2021/03/12 01:59:04;;;;;;;0.25;0.25;;;14.40;69.80;;;;;;4179038;28;20427;-49
2021/03/12 02:01:48;;;;;;;0.00;0.00;;;14.40;69.90;;;;;;4180114;28;20070;-45
2021/03/12 02:04:22;;;;;;;0.10;0.10;;;14.40;69.80;;;;;;4179118;28;20140;-47
2021/03/12 02:06:52;;;;;;;0.00;0.00;;;14.40;69.80;;;;;;4193080;28;20086;-50
2021/03/12 02:09:15;;;;;;;0.00;0.00;;;14.40;69.80;;;;;;4203798;28;20052;-46
2021/03/12 02:11:39;;;;;;;0.00;0.00;;;14.40;69.90;;;;;;4195378;28;20049;-46
2021/03/12 02:14:11;;;;;;;0.00;0.00;;;14.40;70.00;;;;;;4178842;28;20614;-46
2021/03/12 02:16:39;;;;;;;0.45;0.45;;;14.40;69.90;;;;;;4178802;28;20057;-43
2021/03/12 02:19:12;;;;;;;0.00;0.00;;;14.30;69.90;;;;;;4187795;28;20119;-42
2021/03/12 02:21:38;;;;;;;0.57;0.57;;;14.30;70.00;;;;;;4195477;28;20088;-43
2021/03/12 02:24:11;;;;;;;0.00;0.00;;;14.30;69.90;;;;;;4184543;28;20079;-42
2021/03/12 02:26:40;;;;;;;0.03;0.03;;;14.30;69.80;;;;;;4179490;28;20530;-43
2021/03/12 02:29:06;;;;;;;0.00;0.00;;;14.30;70.60;;;;;;4189864;28;20060;-42
2021/03/12 02:31:33;;;;;;;0.00;0.00;;;14.30;69.70;;;;;;4195171;28;20056;-44
2021/03/12 02:33:57;;;;;;;1.17;0.82;;;14.30;69.70;;;;;;4194898;28;20054;-42
2021/03/12 02:36:20;;;;;;;0.00;0.00;;;14.30;69.70;;;;;;4194802;28;20056;-43
2021/03/12 02:38:50;;;;;;;0.00;0.00;;;14.30;69.70;;;;;;4194909;28;20608;-42
2021/03/12 02:41:13;;;;;;;0.00;0.00;;;14.30;69.80;;;;;;4194720;28;20056;-42
2021/03/12 02:43:43;;;;;;;0.00;0.00;;;14.30;70.80;;;;;;4195014;28;20052;-43
2021/03/12 02:46:08;;;;;;;0.00;0.00;;;14.20;69.90;;;;;;4194857;28;20519;-42
2021/03/12 02:48:34;;;;;;;0.00;0.00;;;14.20;69.80;;;;;;4194463;28;20134;-43
2021/03/12 02:50:55;;;;;;;0.00;0.00;;;14.20;69.80;;;;;;4194636;28;20129;-44
2021/03/12 02:53:19;;;;;;;0.10;0.10;;;14.20;69.90;;;;;;4194518;28;20118;-43
2021/03/12 02:55:46;;;;;;;0.10;0.10;;;14.20;69.80;;;;;;4194757;28;20049;-44
2021/03/12 02:58:14;;;;;;;0.00;0.00;;;14.20;70.00;;;;;;4194170;28;20522;-44
2021/03/12 03:00:36;;;;;;;0.57;0.52;;;14.20;70.00;;;;;;4194566;28;20512;-42
2021/03/12 03:03:17;;;;;;;0.00;0.00;;;14.20;70.00;;;;;;4195802;28;20056;-43
2021/03/12 03:05:51;;;;;;;0.00;0.00;;;14.20;69.90;;;;;;4194583;28;20087;-49
2021/03/12 03:08:13;;;;;;;0.00;0.00;;;14.20;70.00;;;;;;4192690;28;20049;-43
2021/03/12 03:10:35;;;;;;;0.00;0.00;;;14.20;70.00;;;;;;4194571;28;20197;-45
2021/03/12 03:12:57;;;;;;;0.00;0.00;;;14.20;70.00;;;;;;4208651;28;20052;-43
2021/03/12 03:15:20;;;;;;;0.00;0.00;;;14.10;70.00;;;;;;4194405;28;20098;-44
2021/03/12 03:17:41;;;;;;;0.00;0.00;;;14.10;69.90;;;;;;4194239;28;20056;-43
2021/03/12 03:20:06;;;;;;;0.00;0.00;;;14.10;70.00;;;;;;4194641;28;20564;-44
2021/03/12 03:22:27;;;;;;;0.00;0.00;;;14.10;69.90;;;;;;4194656;28;20521;-43
2021/03/12 03:24:48;;;;;;;0.00;0.00;;;14.10;69.90;;;;;;4194358;28;20098;-43
2021/03/12 03:27:12;;;;;;;0.10;0.10;;;14.10;69.90;;;;;;4191414;28;20437;-42
2021/03/12 03:29:34;;;;;;;0.00;0.00;;;14.10;69.90;;;;;;4177965;28;20068;-43
2021/03/12 03:31:56;;;;;;;0.00;0.00;;;14.10;69.90;;;;;;4177945;28;20126;-43
2021/03/12 03:34:18;;;;;;;0.68;0.63;;;14.10;69.90;;;;;;4178770;28;20554;-43
2021/03/12 03:36:41;;;;;;;0.00;0.00;;;14.00;69.90;;;;;;4191548;28;20055;-44
2021/03/12 03:39:03;;;;;;;0.00;0.00;;;14.10;69.90;;;;;;4179123;28;20059;-43
2021/03/12 03:41:25;;;;;;;0.00;0.00;;;14.00;69.90;;;;;;4181629;28;20049;-47
2021/03/12 03:43:48;;;;;;;;;;;14.00;70.00;;;;;;4199342;28;20056;-43
2021/03/12 03:46:14;;;;;;;0.05;0.05;;;14.00;69.90;;;;;;4194894;28;20412;-45
2021/03/12 03:48:41;;;;;;;0.00;0.00;;;14.00;69.90;;;;;;4181101;28;20049;-43
2021/03/12 03:51:06;;;;;;;0.00;0.00;;;14.00;69.90;;;;;;4180842;28;20052;-43
2021/03/12 03:53:31;;;;;;;0.00;0.00;;;14.00;69.90;;;;;;4180964;28;20063;-44
2021/03/12 03:55:54;;;;;;;0.00;0.00;;;14.00;70.00;;;;;;4185122;28;20097;-43
2021/03/12 03:58:15;;;;;;;0.00;0.00;;;14.00;70.00;;;;;;4194671;28;20057;-43
2021/03/12 04:00:38;;;;;;;0.00;0.00;;;14.00;70.00;;;;;;4180884;28;20053;-43
2021/03/12 04:03:05;;;;;;;0.00;0.00;;;13.90;69.80;;;;;;4196960;28;20094;-50
2021/03/12 04:05:32;;;;;;;0.00;0.00;;;14.00;70.00;;;;;;4197157;28;20416;-43
2021/03/12 04:07:54;;;;;;;0.00;0.00;;;13.90;70.00;;;;;;4198420;28;20059;-44
2021/03/12 04:10:18;;;;;;;0.00;0.00;;;13.90;70.00;;;;;;4196946;28;20114;-43
2021/03/12 04:12:40;;;;;;;0.03;0.03;;;13.90;70.00;;;;;;4194340;28;20080;-43
2021/03/12 04:15:03;;;;;;;0.00;0.00;;;13.90;70.00;;;;;;4180649;28;20060;-43
2021/03/12 04:17:26;;;;;;;0.00;0.00;;;13.90;70.00;;;;;;4194836;28;20962;-43
2021/03/12 04:19:47;;;;;;;;;;;13.90;70.00;;;;;;4195203;28;20585;-43
2021/03/12 04:22:09;;;;;;;0.00;0.00;;;13.90;70.10;;;;;;4180638;28;19927;-43
2021/03/12 04:24:32;;;;;;;0.00;0.00;;;13.90;69.90;;;;;;4194764;28;20125;-43
2021/03/12 04:26:55;;;;;;;2.40;2.20;;;13.90;70.00;;;;;;4192117;28;20143;-43
2021/03/12 04:29:21;;;;;;;0.00;0.00;;;13.90;70.00;;;;;;4194670;28;20048;-43
2021/03/12 04:31:43;;;;;;;0.00;0.00;;;13.80;70.00;;;;;;4180744;28;20060;-43
2021/03/12 04:34:04;;;;;;;0.00;0.00;;;13.80;70.10;;;;;;4180399;28;20123;-44
2021/03/12 04:36:26;;;;;;;0.00;0.00;;;13.80;70.00;;;;;;4190628;28;20061;-43
2021/03/12 04:38:49;;;;;;;0.30;0.15;;;13.80;70.10;;;;;;4180281;28;20142;-43
2021/03/12 04:41:11;;;;;;;0.00;0.00;;;13.80;70.00;;;;;;4191778;28;20056;-42
2021/03/12 04:43:33;;;;;;;0.00;0.00;;;13.80;70.00;;;;;;4196761;28;20492;-45
2021/03/12 04:45:54;;;;;;;0.00;0.00;;;13.80;70.00;;;;;;4197434;28;20085;-43
2021/03/12 04:48:17;;;;;;;0.00;0.00;;;13.80;70.10;;;;;;4196759;28;20062;-44
2021/03/12 04:50:40;;;;;;;0.30;0.30;;;13.80;70.00;;;;;;4195734;28;20113;-44
2021/03/12 04:53:03;;;;;;;0.00;0.00;;;13.80;71.00;;;;;;4196760;28;20055;-43
2021/03/12 04:55:25;;;;;;;0.00;0.00;;;13.80;70.20;;;;;;4196374;28;20122;-45
2021/03/12 04:57:49;;;;;;;0.00;0.00;;;13.70;70.00;;;;;;4196538;28;20553;-44
2021/03/12 05:00:14;;;;;;;0.00;0.00;;;13.80;70.10;;;;;;4193696;28;20090;-43
2021/03/12 05:02:54;;;;;;;0.00;0.00;;;13.70;70.10;;;;;;4180035;28;20115;-43
2021/03/12 05:05:17;;;;;;;0.00;0.00;;;13.70;70.10;;;;;;4182302;28;20061;-43
2021/03/12 05:07:38;;;;;;;0.00;0.00;;;13.70;70.10;;;;;;4196297;28;20068;-43
2021/03/12 05:10:11;;;;;;;0.00;0.00;;;13.70;70.10;;;;;;4196155;28;20059;-42
2021/03/12 05:12:33;;;;;;;0.00;0.00;;;13.70;70.10;;;;;;4181227;28;20057;-43
2021/03/12 05:14:54;;;;;;;;;;;13.70;70.10;;;;;;4180338;28;20580;-45
2021/03/12 05:17:16;;;;;;;0.00;0.00;;;13.70;70.10;;;;;;4179598;28;19935;-43
2021/03/12 05:19:38;;;;;;;0.55;0.55;;;13.70;70.10;;;;;;4179709;28;20057;-46
2021/03/12 05:22:00;;;;;;;0.00;0.00;;;13.70;70.10;;;;;;4180818;28;20071;-45
2021/03/12 05:24:24;;;;;;;0.00;0.00;;;13.70;70.10;;;;;;4179781;28;20132;-47
2021/03/12 05:26:46;;;;;;;9.70;1.02;;;13.70;71.00;;;;;;4194699;28;20466;-48
2021/03/12 05:29:10;;;;;;;0.00;0.00;;;13.70;70.10;;;;;;4196076;28;20526;-48
2021/03/12 05:31:31;;;;;;;0.00;0.00;;;13.70;70.10;;;;;;4196674;28;20416;-48
2021/03/12 05:33:55;;;;;;;0.00;0.00;;;13.60;70.10;;;;;;4195998;28;20060;-44
2021/03/12 05:36:17;;;;;;;0.00;0.00;;;13.60;70.10;;;;;;4195729;28;20114;-48
2021/03/12 05:38:38;;;;;;;0.00;0.00;;;13.60;70.10;;;;;;4195848;28;20052;-48
2021/03/12 05:41:02;;;;;;;3.83;0.95;;;13.60;70.10;;;;;;4193139;28;20052;-43
2021/03/12 05:43:25;;;;;;;0.00;0.00;;;13.60;70.20;;;;;;4179381;28;20049;-43
2021/03/12 05:45:52;;;;;;;0.00;0.00;;;13.60;71.00;;;;;;4187945;28;20056;-43
2021/03/12 05:48:16;;;;;;;0.00;0.00;;;13.60;70.10;;;;;;4195885;28;20142;-43
2021/03/12 05:50:40;;;;;;;0.10;0.10;;;13.60;70.20;;;;;;4193057;28;20055;-43
2021/03/12 05:53:04;;;;;;;0.00;0.00;;;13.60;70.20;;;;;;4179188;28;20063;-44
2021/03/12 05:55:29;;;;;;;6.38;0.60;;;13.50;70.10;;;;;;4186594;28;20438;-43
2021/03/12 05:57:50;;;;;;;0.00;0.00;;;13.60;70.20;;;;;;4195433;28;20143;-43
2021/03/12 06:00:13;;;;;;;0.00;0.00;;;13.60;70.10;;;;;;4195404;28;20051;-44
2021/03/12 06:02:38;;;;;;;0.00;0.00;;;13.60;70.20;;;;;;4195210;28;20518;-43
2021/03/12 06:04:59;;;;;;;0.38;0.15;;;13.50;70.20;;;;;;4195312;28;20086;-44
2021/03/12 06:07:21;;;;;;;0.00;0.00;;;13.50;70.10;;;;;;4195513;28;20052;-45
2021/03/12 06:09:44;;;;;;;0.00;0.00;;;13.50;70.20;;;;;;4195392;28;20048;-43
2021/03/12 06:12:06;;;;;;;0.00;0.00;;;13.50;70.20;;;;;;4191482;28;20423;-43
2021/03/12 06:14:52;;;;;;;0.10;0.10;;;13.50;70.20;;;;;;4195294;28;20528;-42
2021/03/12 06:17:34;;;;;;;;;;;13.50;70.10;;;;;;4196502;28;20076;-43
2021/03/12 06:19:57;;;;;;;0.00;0.00;;;13.50;70.10;;;;;;4195055;28;20349;-42
2021/03/12 06:22:22;;;;;;;0.00;0.00;;;13.50;70.10;;;;;;4196026;28;20048;-43
2021/03/12 06:24:47;;;;;;;0.00;0.00;;;13.50;70.20;;;;;;4192541;28;20051;-42
2021/03/12 06:27:23;;;;;;;0.00;0.00;;;13.50;70.20;;;;;;4193849;28;20079;-43
2021/03/12 06:29:46;;;;;;;0.08;0.08;;;13.50;70.20;;;;;;4195206;28;20170;-43
2021/03/12 06:32:41;;;;;;;0.00;0.00;;;13.50;70.70;;;;;;4192737;28;20057;-45
2021/03/12 06:35:36;;;;;;;0.00;0.00;;;13.50;71.60;;;;;;4187726;28;20048;-45
2021/03/12 06:38:14;;;;;;;0.00;0.00;;;13.50;71.10;;;;;;4192483;28;20048;-42
2021/03/12 06:41:02;;;;;;;5.95;1.33;;;13.50;70.90;;;;;;4194259;28;20131;-43
2021/03/12 06:43:36;;;;;;;0.00;0.00;;;13.50;70.80;;;;;;4194843;28;20155;-43
2021/03/12 06:46:02;;;;;;;0.00;0.00;;;13.50;70.80;;;;;;4194938;28;20078;-44
2021/03/12 06:48:33;;;;;;;0.00;0.00;;;13.50;70.70;;;;;;4191997;28;20056;-43
2021/03/12 06:51:13;;;;;;;0.00;0.00;;;13.50;70.70;;;;;;4190609;28;20384;-42
2021/03/12 06:53:38;;;;;;;0.10;0.10;;;13.50;70.70;;;;;;4195634;28;20442;-43
2021/03/12 06:56:02;;;;;;;23.67;0.98;;;13.50;70.80;;;;;;4191976;28;20466;-43
2021/03/12 06:58:32;;;;;;;0.00;0.00;;;13.50;70.90;;;;;;4183825;28;20480;-43
2021/03/12 07:01:00;;;;;;;0.00;0.00;;;13.40;71.70;;;;;;4194151;28;20052;-43
2021/03/12 07:03:29;;;;;;;0.03;0.03;;;13.50;71.30;;;;;;4194090;28;20481;-44
2021/03/12 07:06:16;;;;;;;0.00;0.00;;;13.50;72.30;;;;;;4194273;28;20056;-43
2021/03/12 07:08:41;;;;;;;0.08;0.08;;;13.50;72.10;;;;;;4191936;28;20064;-44
2021/03/12 07:11:23;;;;;;;0.00;0.00;;;13.50;71.80;;;;;;4193723;28;20059;-44
2021/03/12 07:14:17;;;;;;;0.00;0.00;;;13.50;71.50;;;;;;4169804;28;20494;-42
2021/03/12 07:16:54;;;;;;;0.00;0.00;;;13.50;71.40;;;;;;4194682;28;20059;-42
2021/03/12 07:19:16;;;;;;;0.00;0.00;;;13.50;71.30;;;;;;4194650;28;20060;-42
2021/03/12 07:21:40;;;;;;;0.00;0.00;;;13.50;71.40;;;;;;4194587;28;20057;-42
2021/03/12 07:24:04;;;;;;;0.00;0.00;;;13.50;71.40;;;;;;4194716;28;20172;-45
2021/03/12 07:26:29;;;;;;;0.40;0.40;;;13.50;71.30;;;;;;4194625;28;20118;-42
2021/03/12 07:29:00;;;;;;;0.00;0.00;;;13.50;71.30;;;;;;4194693;28;20099;-42
2021/03/12 07:31:47;;;;;;;0.00;0.00;;;13.40;71.20;;;;;;4178029;28;20708;-44
2021/03/12 07:34:15;;;;;;;0.00;0.00;;;13.40;71.20;;;;;;4178137;28;20068;-46
2021/03/12 07:36:44;;;;;;;0.10;0.10;;;13.50;71.30;;;;;;4178051;28;20616;-45
2021/03/12 07:39:07;;;;;;;0.00;0.00;;;13.50;71.30;;;;;;4188722;28;20056;-44
2021/03/12 07:41:29;;;;;;;0.00;0.00;;;13.40;71.20;;;;;;4194261;28;20131;-42
2021/03/12 07:44:14;;;;;;;0.00;0.00;;;13.50;72.10;;;;;;4194333;28;20052;-43
2021/03/12 07:46:53;;;;;;;0.03;0.03;;;13.50;71.20;;;;;;4194500;28;20053;-43
2021/03/12 07:49:34;;;;;;;0.00;0.00;;;13.40;71.20;;;;;;4195182;28;20049;-43
2021/03/12 07:52:06;;;;;;;0.00;0.00;;;13.40;71.10;;;;;;4194285;28;20056;-42
2021/03/12 07:54:46;;;;;;;3.00;1.65;;;13.40;71.20;;;;;;4194369;28;20063;-44
2021/03/12 07:57:41;;;;;;;0.00;0.00;;;13.40;71.30;;;;;;4194001;28;20051;-43
2021/03/12 08:00:22;;;;;;;0.00;0.00;;;13.40;71.20;;;;;;4191877;28;20084;-42
2021/03/12 08:03:09;;;;;;;0.00;0.00;;;13.40;71.30;;;;;;4183299;28;20506;-42
2021/03/12 08:05:42;;;;;;;0.00;0.00;;;13.40;71.40;;;;;;4193937;28;20095;-43
2021/03/12 08:08:34;;;;;;;0.00;0.00;;;13.40;71.50;;;;;;4189515;28;20056;-45
2021/03/12 08:11:21;;;;;;;0.00;0.00;;;13.40;71.40;;;;;;4192497;28;20071;-43
2021/03/12 08:13:49;;;;;;;0.00;0.00;;;13.40;71.40;;;;;;4193984;28;20468;-42
2021/03/12 08:16:18;;;;;;;0.00;0.00;;;13.40;71.40;;;;;;4187475;28;20052;-42
2021/03/12 08:18:43;;;;;;;0.00;0.00;;;13.40;71.30;;;;;;4194130;28;20060;-48
2021/03/12 08:21:34;;;;;;;0.00;0.00;;;13.40;71.30;;;;;;4183434;28;20067;-48
2021/03/12 08:24:02;;;;;;;0.00;0.00;;;13.40;71.30;;;;;;4194236;28;20057;-44
2021/03/12 08:26:54;;;;;;;0.00;0.00;;;13.40;71.40;;;;;;4195961;28;20067;-43
2021/03/12 08:29:36;;;;;;;0.10;0.10;;;13.40;71.40;;;;;;4198101;28;20060;-43
2021/03/12 08:31:59;;;;;;;0.00;0.00;;;13.40;71.40;;;;;;4196878;28;20086;-43
2021/03/12 08:34:37;;;;;;;0.00;0.00;;;13.40;71.40;;;;;;4197103;28;20068;-45
2021/03/12 08:37:38;;;;;;;0.00;0.00;;;13.40;71.40;;;;;;4181927;28;20426;-43
2021/03/12 08:40:21;;;;;;;0.00;0.00;;;13.40;71.30;;;;;;4196953;28;20564;-43
2021/03/12 08:43:16;;;;;;;0.00;0.00;;;13.40;71.20;;;;;;4171899;28;20073;-45
2021/03/12 08:46:16;;;;;;;0.00;0.00;;;13.40;71.30;;;;;;4180340;28;20049;-46
2021/03/12 08:48:40;;;;;;;0.00;0.00;;;13.40;71.40;;;;;;4180239;28;20487;-43
2021/03/12 08:51:07;;;;;;;0.00;0.00;;;13.40;71.60;;;;;;4181632;28;20072;-43
2021/03/12 08:53:36;;;;;;;0.43;0.43;;;13.40;71.60;;;;;;4196613;28;20094;-46
2021/03/12 08:55:59;;;;;;;0.00;0.00;;;13.40;71.70;;;;;;4196636;28;20055;-48
2021/03/12 08:58:31;;;;;;;0.17;0.17;;;13.40;71.70;;;;;;4196134;28;20091;-43
2021/03/12 09:01:10;;;;;;;0.00;0.00;;;13.40;71.60;;;;;;4196623;28;20053;-44
2021/03/12 09:03:36;;;;;;;0.73;0.73;;;13.40;71.60;;;;;;4196644;28;20058;-44
2021/03/12 09:06:13;;;;;;;0.00;0.00;;;13.40;71.50;;;;;;4193649;28;20059;-43
2021/03/12 09:09:08;;;;;;;0.43;0.43;;;13.40;71.50;;;;;;4175330;28;20065;-43
2021/03/12 09:11:55;;;;;;;0.00;0.00;;;13.40;71.50;;;;;;4186493;28;20052;-45
2021/03/12 09:14:23;;;;;;;0.43;0.43;;;13.40;71.50;;;;;;4196544;28;20049;-42
2021/03/12 09:16:46;;;;;;;0.00;0.00;;;13.40;71.50;;;;;;4196278;28;20616;-43
2021/03/12 09:19:12;;;;;;;0.00;0.00;;;13.40;71.50;;;;;;4196127;28;20742;-45
2021/03/12 09:22:00;;;;;;;0.65;0.65;;;13.40;71.50;;;;;;4197223;28;20422;-44
2021/03/12 09:24:30;;;;;;;0.00;0.00;;;13.40;71.50;;;;;;4193828;28;20580;-45
2021/03/12 09:26:51;;;;;;;0.20;0.20;;;13.40;71.60;;;;;;4193578;28;20080;-43
2021/03/12 09:29:22;;;;;;;0.00;0.00;;;13.40;71.50;;;;;;4179693;28;20135;-43
2021/03/12 09:31:47;;;;;;;69.88;2.10;;;13.40;71.50;;;;;;4193709;28;20518;-44
2021/03/12 09:34:17;;;;;;;0.00;0.00;;;13.40;71.40;;;;;;4180518;28;20135;-43
2021/03/12 09:36:47;;;;;;;0.00;0.00;;;13.40;71.40;;;;;;4179101;28;20465;-43
2021/03/12 09:39:39;;;;;;;0.00;0.00;;;13.40;71.40;;;;;;4172330;28;20065;-43
2021/03/12 09:42:11;;;;;;;0.35;0.35;;;13.40;71.40;;;;;;4193436;28;20131;-43
2021/03/12 09:44:38;;;;;;;0.00;0.00;;;13.40;71.30;;;;;;4179244;28;20063;-43
2021/03/12 09:47:08;;;;;;;0.22;0.22;;;13.30;71.40;;;;;;4180627;28;20052;-45
2021/03/12 09:49:38;;;;;;;0.00;0.00;;;13.40;71.40;;;;;;4196924;28;20166;-43
2021/03/12 09:52:01;;;;;;;0.00;0.00;;;13.40;71.40;;;;;;4195720;28;20052;-43
2021/03/12 09:54:24;;;;;;;0.00;0.00;;;13.30;72.10;;;;;;4195537;28;20056;-43
2021/03/12 09:56:51;;;;;;;0.00;0.00;;;13.40;71.30;;;;;;4195587;28;20056;-44
2021/03/12 09:59:14;;;;;;;0.00;0.00;;;13.40;71.40;;;;;;4193309;28;20060;-44
2021/03/12 10:01:40;;;;;;;0.00;0.00;;;13.40;71.40;;;;;;4196642;28;20052;-43
2021/03/12 10:04:26;;;;;;;0.00;0.00;;;13.40;71.50;;;;;;4188872;28;20084;-48
2021/03/12 10:07:01;;;;;;;0.00;0.00;;;13.40;71.30;;;;;;4195439;28;20060;-46
2021/03/12 10:09:24;;;;;;;0.10;0.10;;;13.60;71.20;;;;;;4186092;28;20553;-43
2021/03/12 10:11:55;;;;;;;;;;;13.70;70.70;;;;;;4195935;28;20494;-45
2021/03/12 10:14:28;;;;;;;;;;;13.80;70.10;;;;;;4195859;28;19935;-42
2021/03/12 10:17:06;;;;;;;0.00;0.00;;;13.90;70.00;;;;;;4209380;28;20508;-43
2021/03/12 10:19:38;;;;;;;0.00;0.00;;;13.90;69.80;;;;;;4195229;28;20061;-43
2021/03/12 10:22:00;;;;;;;0.00;0.00;;;13.90;69.70;;;;;;4196338;28;20507;-43
2021/03/12 10:24:26;;;;;;;0.00;0.00;;;13.90;69.60;;;;;;4196379;28;20041;-43
2021/03/12 10:26:48;;;;;;;0.03;0.03;;;14.00;69.60;;;;;;4195884;28;20101;-45
2021/03/12 10:29:10;;;;;;;0.00;0.00;;;14.00;69.70;;;;;;4183386;28;20045;-43
2021/03/12 10:31:36;;;;;;;;;;;14.00;69.70;;;;;;4196480;28;20041;-43
2021/03/12 10:33:58;;;;;;;0.00;0.00;;;14.00;69.80;;;;;;4196076;28;20294;-43
2021/03/12 10:36:21;;;;;;;0.20;0.20;;;13.90;69.70;;;;;;4196226;28;20467;-43
2021/03/12 10:38:47;;;;;;;0.00;0.00;;;13.90;70.10;;;;;;4179493;28;20064;-43
2021/03/12 10:41:17;;;;;;;0.00;0.00;;;14.00;70.40;;;;;;4178447;28;20132;-46
2021/03/12 10:43:38;;;;;;;0.10;0.10;;;14.00;71.70;;;;;;4179444;28;20065;-42
2021/03/12 10:46:00;;;;;;;;;;;14.00;71.80;;;;;;4180957;28;20079;-43
2021/03/12 10:48:25;;;;;;;;;;;14.00;72.30;;;;;;4193470;28;19947;-42
2021/03/12 10:50:53;;;;;;;0.30;0.30;;;14.00;72.50;;;;;;4195896;28;19967;-42
2021/03/12 10:53:15;;;;;;;0.10;0.10;;;14.00;72.40;;;;;;4195841;28;20060;-42
2021/03/12 10:55:40;;;;;;;0.00;0.00;;;14.10;72.40;;;;;;4195757;28;20102;-43
2021/03/12 10:58:01;;;;;;;0.00;0.00;;;14.10;72.40;;;;;;4195327;28;20076;-43
2021/03/12 11:00:23;;;;;;;0.00;0.00;;;14.10;72.50;;;;;;4195865;28;20052;-43
2021/03/12 11:02:44;;;;;;;0.00;0.00;;;14.10;72.80;;;;;;4195720;28;20464;-42
2021/03/12 11:05:07;;;;;;;0.00;0.00;;;14.10;72.80;;;;;;4195850;28;20052;-43
2021/03/12 11:07:29;;;;;;;0.10;0.10;;;14.10;72.90;;;;;;4195363;28;20044;-43
2021/03/12 11:09:50;;;;;;;0.43;0.43;;;14.00;73.70;;;;;;4187026;28;20482;-42
2021/03/12 11:12:12;;;;;;;4.55;1.67;;;14.00;73.80;;;;;;4194866;28;20052;-43
2021/03/12 11:14:34;;;;;;;1.20;1.10;;;14.00;73.00;;;;;;4194872;28;20049;-45
2021/03/12 11:16:55;;;;;;;0.30;0.30;;;14.00;73.60;;;;;;4195230;28;20473;-46
2021/03/12 11:19:16;;;;;;;0.00;0.00;;;14.10;74.20;;;;;;4194797;28;20392;-45
2021/03/12 11:21:38;;;;;;;0.00;0.00;;;14.10;74.20;;;;;;4184269;28;20063;-45
2021/03/12 11:23:59;;;;;;;0.00;0.00;;;14.10;74.50;;;;;;4180118;28;20136;-43
2021/03/12 11:26:21;;;;;;;0.00;0.00;;;14.10;74.30;;;;;;4195221;28;20108;-43
2021/03/12 11:28:42;;;;;;;0.40;0.40;;;14.10;74.50;;;;;;4194883;28;20107;-43
2021/03/12 11:31:04;;;;;;;1.35;1.25;;;14.00;74.50;;;;;;4194205;28;20067;-43
2021/03/12 11:33:25;;;;;;;0.00;0.00;;;14.00;74.60;;;;;;4194971;28;20055;-43
2021/03/12 11:35:46;;;;;;;;;;;14.00;74.70;;;;;;4193928;28;20098;-44
2021/03/12 11:38:09;;;;;;;0.75;0.52;;;14.00;75.00;;;;;;4195213;28;19931;-44
2021/03/12 11:40:31;;;;;;;0.32;0.32;;;14.00;75.10;;;;;;4194769;28;20055;-46
2021/03/12 11:42:52;;;;;;;0.10;0.10;;;14.00;75.00;;;;;;4195397;28;20051;-44
2021/03/12 11:45:17;;;;;;;0.00;0.00;;;14.00;75.20;;;;;;4195075;28;20049;-43
2021/03/12 11:47:39;;;;;;;0.20;0.20;;;14.00;75.20;;;;;;4195269;28;20083;-44
2021/03/12 11:50:00;;;;;;;0.77;0.63;;;13.90;75.10;;;;;;4194935;28;20057;-43
2021/03/12 11:52:25;;;;;;;;;;;13.90;75.10;;;;;;4195369;28;20048;-44
2021/03/12 11:54:46;;;;;;;0.30;0.30;;;13.90;75.40;;;;;;4195263;28;20371;-49
2021/03/12 11:57:09;;;;;;;2.72;2.00;;;13.80;75.60;;;;;;4194411;28;20475;-46
2021/03/12 11:59:30;;;;;;;3.03;2.58;;;13.80;75.80;;;;;;4188447;28;20548;-46
2021/03/12 12:01:50;;;;;;;0.85;0.85;;;13.80;75.60;;;;;;4196436;28;20457;-45
2021/03/12 12:04:12;;;;;;;0.40;0.40;;;13.70;76.00;;;;;;4186050;28;20057;-43
2021/03/12 12:06:33;;;;;;;1.17;0.85;;;14.00;76.00;;;;;;4198038;28;20040;-43
2021/03/12 12:08:54;;;;;;;2.25;1.25;;;14.70;73.10;;;;;;4197935;28;20057;-43
2021/03/12 12:11:15;;;;;;;0.00;0.00;;;15.60;69.50;;;;;;4188849;28;20060;-43
2021/03/12 12:13:37;;;;;;;0.00;0.00;;;16.40;66.10;;;;;;4197604;28;20056;-44
2021/03/12 12:15:58;;;;;;;0.10;0.10;;;17.10;63.30;;;;;;4197982;28;20055;-50
2021/03/12 12:18:19;;;;;;;0.00;0.00;;;17.90;60.50;;;;;;4197935;28;20055;-46
2021/03/12 12:20:49;;;;;;;0.00;0.00;;;18.50;58.60;;;;;;4198131;28;20070;-43
2021/03/12 12:23:10;;;;;;;0.00;0.00;;;19.00;57.40;;;;;;4198130;28;20080;-43
2021/03/12 12:25:31;;;;;;;0.05;0.05;;;19.40;56.50;;;;;;4197770;28;20048;-43
2021/03/12 12:27:52;;;;;;;0.00;0.00;;;19.50;56.10;;;;;;4197842;28;20060;-43
2021/03/12 12:30:16;;;;;;;0.00;0.00;;;19.60;56.10;;;;;;4198285;28;20080;-44
2021/03/12 12:32:37;;;;;;;0.32;0.32;;;19.50;56.40;;;;;;4181472;28;20395;-42
2021/03/12 12:34:59;;;;;;;0.00;0.00;;;19.50;56.70;;;;;;4192084;28;20152;-43
2021/03/12 12:37:20;;;;;;;0.03;0.03;;;19.30;57.30;;;;;;4198011;28;20131;-43
2021/03/12 12:39:41;;;;;;;0.00;0.00;;;19.10;57.70;;;;;;4197367;28;20059;-43
2021/03/12 12:42:04;;;;;;;1.10;1.08;;;18.90;58.40;;;;;;4197758;28;20045;-44
2021/03/12 12:44:24;;;;;;;1.45;1.45;;;18.70;59.30;;;;;;4197441;28;20048;-42
2021/03/12 12:46:47;;;;;;;0.35;0.35;;;18.50;60.10;;;;;;4197496;28;20052;-43